createdAt,value
2019-02-01T00:00:34.983Z,0.90
2019-02-01T00:01:39.336Z,0.80
2019-02-01T00:02:43.076Z,0.90
2019-02-01T00:03:46.690Z,0.90
2019-02-01T00:04:50.349Z,0.80
2019-02-01T00:05:53.942Z,0.80
2019-02-01T00:06:57.551Z,0.80
2019-02-01T00:08:01.223Z,0.80
2019-02-01T00:09:08.550Z,0.90
2019-02-01T00:10:13.006Z,0.80
2019-02-01T00:11:16.667Z,0.90
2019-02-01T00:12:20.350Z,0.90
2019-02-01T00:13:23.964Z,0.90
2019-02-01T00:14:27.596Z,0.90
2019-02-01T00:15:31.209Z,0.80
2019-02-01T00:16:34.866Z,0.80
2019-02-01T00:17:38.456Z,0.80
2019-02-01T00:18:42.190Z,0.90
2019-02-01T00:19:51.344Z,0.90
2019-02-01T00:20:51.119Z,0.90
2019-02-01T00:21:54.833Z,0.90
2019-02-01T00:22:58.492Z,0.80
2019-02-01T00:24:02.101Z,0.80
2019-02-01T00:25:10.973Z,0.80
2019-02-01T00:26:14.578Z,0.80
2019-02-01T00:27:18.230Z,0.80
2019-02-01T00:28:21.804Z,0.80
2019-02-01T00:29:25.418Z,0.80
2019-02-01T00:30:29.058Z,0.80
2019-02-01T00:31:32.720Z,0.80
2019-02-01T00:32:36.363Z,0.80
2019-02-01T00:33:39.956Z,0.70
2019-02-01T00:34:43.584Z,0.70
2019-02-01T00:35:47.250Z,0.70
2019-02-01T00:36:50.861Z,0.70
2019-02-01T00:37:54.468Z,0.50
2019-02-01T00:38:58.150Z,0.60
2019-02-01T00:40:02.037Z,0.50
2019-02-01T00:41:05.651Z,0.50
2019-02-01T00:42:09.253Z,0.40
2019-02-01T00:43:12.823Z,0.40
2019-02-01T00:44:16.418Z,0.40
2019-02-01T00:45:20.189Z,0.40
2019-02-01T00:46:23.815Z,0.40
2019-02-01T00:47:27.394Z,0.50
2019-02-01T00:48:31.896Z,0.50
2019-02-01T00:49:35.488Z,0.40
2019-02-01T00:50:39.230Z,0.40
2019-02-01T00:51:42.871Z,0.40
2019-02-01T00:52:46.493Z,0.40
2019-02-01T00:53:50.092Z,0.50
2019-02-01T00:54:53.679Z,0.50
2019-02-01T00:55:57.282Z,0.50
2019-02-01T00:57:00.892Z,0.50
2019-02-01T00:58:04.669Z,0.50
2019-02-01T00:59:08.245Z,0.50
2019-02-01T01:00:17.875Z,0.40
2019-02-01T01:01:21.693Z,0.40
2019-02-01T01:02:25.286Z,0.30
2019-02-01T01:03:29.097Z,0.30
2019-02-01T01:04:32.656Z,0.30
2019-02-01T01:05:36.377Z,0.30
2019-02-01T01:06:39.955Z,0.30
2019-02-01T01:07:43.602Z,0.30
2019-02-01T01:08:47.327Z,0.30
2019-02-01T01:09:50.988Z,0.30
2019-02-01T01:10:54.746Z,0.20
2019-02-01T01:11:58.485Z,0.30
2019-02-01T01:13:02.362Z,0.30
2019-02-01T01:14:06.131Z,0.40
2019-02-01T01:15:12.788Z,0.40
2019-02-01T01:16:16.485Z,0.50
2019-02-01T01:17:20.107Z,0.50
2019-02-01T01:18:24.369Z,0.50
2019-02-01T01:19:28.066Z,0.40
2019-02-01T01:20:31.743Z,0.40
2019-02-01T01:21:35.438Z,0.40
2019-02-01T01:22:39.077Z,0.50
2019-02-01T01:23:42.713Z,0.50
2019-02-01T01:24:46.330Z,0.40
2019-02-01T01:25:50.067Z,0.40
2019-02-01T01:26:53.789Z,0.40
2019-02-01T01:27:57.647Z,0.40
2019-02-01T01:29:01.243Z,0.40
2019-02-01T01:30:08.260Z,0.40
2019-02-01T01:31:11.925Z,0.40
2019-02-01T01:32:15.544Z,0.40
2019-02-01T01:33:19.277Z,0.50
2019-02-01T01:34:22.873Z,0.50
2019-02-01T01:35:26.521Z,0.50
2019-02-01T01:36:30.156Z,0.50
2019-02-01T01:37:33.807Z,0.60
2019-02-01T01:38:37.561Z,0.50
2019-02-01T01:39:41.275Z,0.50
2019-02-01T01:40:45.046Z,0.60
2019-02-01T01:41:48.708Z,0.60
2019-02-01T01:42:52.409Z,0.50
2019-02-01T01:43:56.090Z,0.60
2019-02-01T01:44:59.805Z,0.60
2019-02-01T01:46:03.548Z,0.60
2019-02-01T01:47:07.240Z,0.60
2019-02-01T01:48:10.914Z,0.60
2019-02-01T01:49:14.614Z,0.50
2019-02-01T01:50:18.505Z,0.50
2019-02-01T01:51:22.258Z,0.50
2019-02-01T01:52:25.923Z,0.40
2019-02-01T01:53:29.599Z,0.40
2019-02-01T01:54:33.266Z,0.40
2019-02-01T01:55:36.864Z,0.40
2019-02-01T01:56:40.562Z,0.40
2019-02-01T01:57:44.910Z,0.40
2019-02-01T01:58:48.503Z,0.40
2019-02-01T01:59:52.130Z,0.50
2019-02-01T02:00:55.789Z,0.40
2019-02-01T02:01:59.368Z,0.40
2019-02-01T02:03:03.123Z,0.40
2019-02-01T02:04:06.820Z,0.40
2019-02-01T02:05:10.608Z,0.40
2019-02-01T02:06:14.303Z,0.50
2019-02-01T02:07:18.023Z,0.40
2019-02-01T02:08:21.618Z,0.50
2019-02-01T02:09:25.282Z,0.50
2019-02-01T02:10:28.991Z,0.60
2019-02-01T02:11:32.570Z,0.60
2019-02-01T02:12:36.326Z,0.60
2019-02-01T02:13:39.908Z,0.60
2019-02-01T02:14:43.572Z,0.70
2019-02-01T02:15:47.331Z,0.70
2019-02-01T02:16:51.008Z,0.70
2019-02-01T02:17:54.730Z,0.70
2019-02-01T02:18:58.325Z,0.70
2019-02-01T02:20:02.275Z,0.70
2019-02-01T02:21:06.014Z,0.70
2019-02-01T02:22:09.756Z,0.70
2019-02-01T02:23:13.365Z,0.70
2019-02-01T02:24:17.038Z,0.80
2019-02-01T02:25:20.764Z,0.80
2019-02-01T02:26:24.436Z,0.70
2019-02-01T02:27:28.103Z,0.70
2019-02-01T02:28:31.699Z,0.80
2019-02-01T02:29:35.300Z,0.80
2019-02-01T02:30:38.883Z,0.80
2019-02-01T02:31:42.574Z,0.70
2019-02-01T02:32:46.550Z,0.70
2019-02-01T02:33:50.201Z,0.70
2019-02-01T02:34:53.798Z,0.70
2019-02-01T02:35:57.431Z,0.80
2019-02-01T02:37:01.159Z,0.80
2019-02-01T02:38:04.816Z,0.70
2019-02-01T02:39:08.558Z,0.70
2019-02-01T02:40:14.938Z,0.70
2019-02-01T02:41:18.560Z,0.70
2019-02-01T02:42:22.179Z,0.80
2019-02-01T02:43:25.770Z,0.80
2019-02-01T02:44:29.382Z,0.80
2019-02-01T02:45:32.970Z,0.80
2019-02-01T02:46:36.553Z,0.90
2019-02-01T02:47:40.353Z,0.90
2019-02-01T02:48:43.929Z,0.90
2019-02-01T02:49:47.516Z,0.90
2019-02-01T02:50:51.110Z,0.90
2019-02-01T02:51:54.770Z,0.90
2019-02-01T02:52:58.416Z,1.00
2019-02-01T02:54:02.023Z,1.00
2019-02-01T02:55:09.203Z,1.00
2019-02-01T02:56:12.793Z,1.00
2019-02-01T02:57:16.421Z,1.00
2019-02-01T02:58:20.116Z,1.00
2019-02-01T02:59:23.722Z,0.90
2019-02-01T03:00:29.090Z,1.00
2019-02-01T03:01:32.692Z,1.00
2019-02-01T03:02:36.295Z,0.90
2019-02-01T03:03:40.041Z,0.90
2019-02-01T03:04:43.716Z,0.90
2019-02-01T03:05:47.389Z,0.80
2019-02-01T03:06:50.998Z,0.90
2019-02-01T03:07:54.721Z,0.90
2019-02-01T03:08:58.320Z,0.90
2019-02-01T03:10:01.923Z,0.90
2019-02-01T03:11:05.651Z,0.90
2019-02-01T03:12:09.238Z,0.90
2019-02-01T03:13:12.949Z,0.90
2019-02-01T03:14:16.557Z,0.90
2019-02-01T03:15:22.356Z,0.90
2019-02-01T03:16:25.966Z,0.80
2019-02-01T03:17:29.638Z,0.80
2019-02-01T03:18:33.339Z,0.80
2019-02-01T03:19:36.931Z,0.90
2019-02-01T03:20:40.533Z,0.80
2019-02-01T03:21:44.117Z,0.80
2019-02-01T03:22:47.831Z,0.90
2019-02-01T03:23:51.411Z,0.90
2019-02-01T03:24:54.994Z,0.90
2019-02-01T03:25:58.789Z,0.90
2019-02-01T03:27:02.415Z,0.90
2019-02-01T03:28:06.292Z,0.90
2019-02-01T03:29:09.880Z,0.90
2019-02-01T03:30:16.323Z,0.90
2019-02-01T03:31:19.931Z,0.90
2019-02-01T03:32:23.606Z,0.90
2019-02-01T03:33:27.568Z,0.80
2019-02-01T03:34:31.228Z,0.80
2019-02-01T03:35:34.839Z,0.80
2019-02-01T03:36:38.440Z,0.80
2019-02-01T03:37:42.116Z,0.90
2019-02-01T03:38:45.745Z,0.90
2019-02-01T03:39:49.342Z,0.90
2019-02-01T03:40:52.960Z,0.90
2019-02-01T03:41:56.679Z,0.90
2019-02-01T03:43:00.356Z,0.90
2019-02-01T03:44:04.186Z,0.90
2019-02-01T03:45:11.308Z,0.90
2019-02-01T03:46:14.961Z,0.90
2019-02-01T03:47:18.555Z,0.90
2019-02-01T03:48:22.260Z,0.90
2019-02-01T03:49:26.322Z,0.90
2019-02-01T03:50:29.987Z,0.90
2019-02-01T03:51:33.690Z,1.00
2019-02-01T03:52:37.303Z,1.00
2019-02-01T03:53:40.952Z,1.00
2019-02-01T03:54:44.603Z,1.00
2019-02-01T03:55:48.339Z,0.90
2019-02-01T03:56:51.999Z,1.00
2019-02-01T03:57:55.629Z,0.90
2019-02-01T03:58:59.310Z,0.90
2019-02-01T04:00:03.796Z,0.90
2019-02-01T04:01:07.483Z,1.00
2019-02-01T04:02:11.140Z,1.00
2019-02-01T04:03:14.760Z,0.90
2019-02-01T04:04:18.413Z,0.90
2019-02-01T04:05:22.138Z,0.90
2019-02-01T04:06:25.888Z,0.80
2019-02-01T04:07:29.482Z,0.80
2019-02-01T04:08:33.102Z,0.80
2019-02-01T04:09:36.722Z,0.70
2019-02-01T04:10:40.410Z,0.70
2019-02-01T04:11:44.104Z,0.60
2019-02-01T04:12:47.870Z,0.60
2019-02-01T04:13:51.453Z,0.50
2019-02-01T04:14:55.223Z,0.60
2019-02-01T04:15:58.965Z,0.60
2019-02-01T04:17:02.570Z,0.50
2019-02-01T04:18:06.243Z,0.50
2019-02-01T04:19:09.859Z,0.50
2019-02-01T04:20:16.198Z,0.60
2019-02-01T04:21:19.914Z,0.50
2019-02-01T04:22:23.514Z,0.60
2019-02-01T04:23:27.231Z,0.60
2019-02-01T04:24:31.058Z,0.70
2019-02-01T04:25:34.638Z,0.70
2019-02-01T04:26:38.229Z,0.70
2019-02-01T04:27:41.822Z,0.70
2019-02-01T04:28:45.502Z,0.80
2019-02-01T04:29:49.122Z,0.80
2019-02-01T04:30:52.803Z,0.70
2019-02-01T04:31:56.484Z,0.70
2019-02-01T04:33:00.078Z,0.80
2019-02-01T04:34:03.921Z,0.80
2019-02-01T04:35:08.063Z,0.80
2019-02-01T04:36:11.738Z,0.80
2019-02-01T04:37:15.434Z,0.80
2019-02-01T04:38:19.045Z,0.90
2019-02-01T04:39:22.708Z,0.90
2019-02-01T04:40:26.354Z,0.90
2019-02-01T04:41:29.957Z,0.90
2019-02-01T04:42:33.632Z,1.00
2019-02-01T04:43:37.271Z,1.00
2019-02-01T04:44:40.951Z,1.00
2019-02-01T04:45:44.584Z,1.00
2019-02-01T04:46:48.181Z,1.00
2019-02-01T04:47:51.956Z,1.00
2019-02-01T04:48:55.531Z,1.00
2019-02-01T04:50:03.899Z,1.00
2019-02-01T04:51:04.540Z,1.00
2019-02-01T04:52:08.448Z,1.00
2019-02-01T04:53:12.093Z,1.00
2019-02-01T04:54:15.775Z,0.90
2019-02-01T04:55:19.394Z,0.90
2019-02-01T04:56:22.991Z,0.80
2019-02-01T04:57:26.610Z,0.80
2019-02-01T04:58:30.234Z,0.90
2019-02-01T04:59:33.854Z,0.90
2019-02-01T05:00:37.507Z,0.90
2019-02-01T05:01:41.088Z,0.90
2019-02-01T05:02:44.743Z,0.90
2019-02-01T05:03:48.567Z,0.90
2019-02-01T05:04:52.196Z,1.00
2019-02-01T05:05:55.797Z,1.00
2019-02-01T05:06:59.399Z,1.00
2019-02-01T05:08:02.994Z,1.00
2019-02-01T05:09:07.783Z,1.00
2019-02-01T05:10:14.231Z,1.00
2019-02-01T05:11:17.868Z,1.00
2019-02-01T05:12:21.520Z,1.00
2019-02-01T05:13:25.155Z,1.00
2019-02-01T05:14:28.775Z,1.00
2019-02-01T05:15:32.417Z,1.00
2019-02-01T05:16:36.129Z,1.00
2019-02-01T05:17:39.799Z,1.00
2019-02-01T05:18:43.382Z,1.00
2019-02-01T05:19:46.989Z,1.00
2019-02-01T05:20:50.716Z,1.00
2019-02-01T05:21:54.340Z,1.00
2019-02-01T05:22:57.930Z,1.00
2019-02-01T05:24:01.550Z,0.90
2019-02-01T05:25:07.577Z,0.90
2019-02-01T05:26:11.207Z,1.00
2019-02-01T05:27:14.857Z,1.00
2019-02-01T05:28:18.433Z,1.00
2019-02-01T05:29:22.019Z,1.00
2019-02-01T05:30:25.708Z,0.90
2019-02-01T05:31:29.278Z,0.90
2019-02-01T05:32:32.984Z,0.90
2019-02-01T05:33:36.646Z,0.90
2019-02-01T05:34:40.241Z,0.90
2019-02-01T05:35:43.810Z,0.90
2019-02-01T05:36:47.454Z,0.90
2019-02-01T05:37:51.046Z,0.80
2019-02-01T05:38:54.643Z,0.80
2019-02-01T05:39:58.271Z,0.80
2019-02-01T05:41:01.866Z,0.80
2019-02-01T05:42:05.590Z,0.80
2019-02-01T05:43:09.158Z,0.80
2019-02-01T05:44:12.751Z,0.90
2019-02-01T05:45:18.181Z,0.90
2019-02-01T05:46:21.880Z,0.90
2019-02-01T05:47:25.567Z,0.90
2019-02-01T05:48:29.253Z,1.00
2019-02-01T05:49:32.811Z,1.00
2019-02-01T05:50:36.399Z,1.00
2019-02-01T05:51:40.085Z,1.00
2019-02-01T05:52:43.831Z,1.00
2019-02-01T05:53:47.450Z,1.00
2019-02-01T05:54:51.043Z,1.10
2019-02-01T05:55:54.760Z,1.10
2019-02-01T05:56:58.382Z,1.10
2019-02-01T05:58:02.018Z,1.10
2019-02-01T05:59:05.609Z,1.10
2019-02-01T06:00:12.294Z,1.00
2019-02-01T06:01:15.901Z,1.00
2019-02-01T06:02:22.480Z,1.00
2019-02-01T06:03:26.152Z,1.00
2019-02-01T06:04:29.878Z,1.00
2019-02-01T06:05:33.451Z,1.00
2019-02-01T06:06:37.093Z,1.00
2019-02-01T06:07:40.766Z,1.00
2019-02-01T06:08:44.352Z,1.00
2019-02-01T06:09:47.951Z,1.00
2019-02-01T06:10:51.625Z,1.00
2019-02-01T06:11:55.325Z,0.90
2019-02-01T06:12:59.004Z,0.90
2019-02-01T06:14:02.640Z,0.80
2019-02-01T06:15:07.065Z,0.80
2019-02-01T06:16:10.709Z,0.80
2019-02-01T06:17:14.362Z,0.90
2019-02-01T06:18:17.981Z,0.90
2019-02-01T06:19:21.579Z,0.90
2019-02-01T06:20:40.002Z,0.80
2019-02-01T06:21:35.704Z,0.80
2019-02-01T06:22:39.299Z,0.80
2019-02-01T06:23:42.896Z,0.80
2019-02-01T06:24:46.561Z,0.80
2019-02-01T06:25:50.245Z,0.80
2019-02-01T06:26:53.850Z,0.80
2019-02-01T06:27:57.461Z,0.90
2019-02-01T06:29:01.074Z,0.90
2019-02-01T06:30:07.721Z,0.90
2019-02-01T06:31:11.391Z,0.90
2019-02-01T06:32:14.985Z,1.00
2019-02-01T06:33:18.603Z,1.00
2019-02-01T06:34:22.192Z,0.90
2019-02-01T06:35:25.914Z,0.90
2019-02-01T06:36:29.562Z,0.90
2019-02-01T06:37:33.213Z,0.90
2019-02-01T06:38:36.819Z,0.90
2019-02-01T06:39:40.466Z,0.90
2019-02-01T06:40:45.280Z,1.00
2019-02-01T06:41:48.953Z,0.90
2019-02-01T06:42:52.578Z,1.00
2019-02-01T06:43:56.195Z,0.90
2019-02-01T06:44:59.799Z,0.90
2019-02-01T06:46:03.599Z,0.90
2019-02-01T06:47:07.290Z,1.00
2019-02-01T06:48:10.954Z,0.90
2019-02-01T06:49:14.863Z,1.00
2019-02-01T06:50:20.088Z,1.00
2019-02-01T06:51:26.745Z,1.00
2019-02-01T06:52:30.661Z,1.10
2019-02-01T06:53:34.316Z,1.10
2019-02-01T06:54:37.920Z,1.10
2019-02-01T06:55:41.554Z,1.10
2019-02-01T06:56:45.165Z,1.20
2019-02-01T06:57:48.776Z,1.10
2019-02-01T06:58:52.437Z,1.10
2019-02-01T06:59:56.021Z,1.00
2019-02-01T07:01:00.557Z,1.00
2019-02-01T07:02:04.395Z,1.00
2019-02-01T07:03:10.108Z,1.00
2019-02-01T07:04:15.352Z,1.10
2019-02-01T07:05:20.586Z,1.10
2019-02-01T07:06:28.694Z,1.10
2019-02-01T07:07:33.946Z,1.10
2019-02-01T07:08:48.206Z,1.10
2019-02-01T07:09:53.459Z,1.10
2019-02-01T07:11:04.815Z,1.10
2019-02-01T07:12:13.406Z,1.10
2019-02-01T07:13:27.798Z,1.10
2019-02-01T07:14:33.037Z,1.20
2019-02-01T07:15:55.559Z,1.20
2019-02-01T07:17:06.994Z,1.20
2019-02-01T07:18:18.107Z,1.10
2019-02-01T07:19:32.464Z,1.10
2019-02-01T07:20:37.706Z,1.20
2019-02-01T07:21:42.973Z,1.20
2019-02-01T07:22:48.223Z,1.20
2019-02-01T07:23:56.420Z,1.10
2019-02-01T07:25:01.704Z,1.10
2019-02-01T07:26:07.080Z,1.20
2019-02-01T07:27:18.191Z,1.10
2019-02-01T07:28:32.052Z,1.10
2019-02-01T07:29:37.281Z,1.10
2019-02-01T07:30:44.948Z,1.10
2019-02-01T07:31:52.652Z,1.20
2019-02-01T07:33:00.655Z,1.20
2019-02-01T07:34:06.357Z,1.20
2019-02-01T07:35:10.758Z,1.20
2019-02-01T07:36:14.373Z,1.20
2019-02-01T07:37:18.004Z,1.20
2019-02-01T07:38:21.583Z,1.20
2019-02-01T07:39:25.308Z,1.30
2019-02-01T07:40:28.973Z,1.20
2019-02-01T07:41:32.604Z,1.20
2019-02-01T07:42:36.300Z,1.30
2019-02-01T07:43:39.888Z,1.30
2019-02-01T07:44:43.518Z,1.30
2019-02-01T07:45:47.100Z,1.40
2019-02-01T07:46:50.697Z,1.40
2019-02-01T07:47:54.341Z,1.40
2019-02-01T07:48:57.935Z,1.40
2019-02-01T07:50:01.531Z,1.40
2019-02-01T07:51:15.046Z,1.40
2019-02-01T07:52:10.520Z,1.40
2019-02-01T07:53:14.172Z,1.30
2019-02-01T07:54:17.829Z,1.40
2019-02-01T07:55:21.462Z,1.40
2019-02-01T07:56:25.117Z,1.40
2019-02-01T07:57:28.731Z,1.40
2019-02-01T07:58:32.322Z,1.40
2019-02-01T07:59:35.963Z,1.40
2019-02-01T08:00:39.547Z,1.30
2019-02-01T08:01:43.285Z,1.40
2019-02-01T08:02:46.901Z,1.40
2019-02-01T08:03:50.504Z,1.40
2019-02-01T08:04:54.204Z,1.40
2019-02-01T08:05:57.815Z,1.40
2019-02-01T08:07:01.410Z,1.40
2019-02-01T08:08:05.069Z,1.40
2019-02-01T08:09:09.400Z,1.40
2019-02-01T08:10:13.321Z,1.40
2019-02-01T08:11:17.061Z,1.40
2019-02-01T08:12:20.643Z,1.40
2019-02-01T08:13:24.224Z,1.50
2019-02-01T08:14:30.538Z,1.50
2019-02-01T08:15:33.148Z,1.50
2019-02-01T08:16:36.771Z,1.50
2019-02-01T08:17:40.389Z,1.50
2019-02-01T08:18:43.984Z,1.50
2019-02-01T08:19:50.347Z,1.50
2019-02-01T08:20:52.986Z,1.50
2019-02-01T08:21:56.599Z,1.50
2019-02-01T08:23:00.174Z,1.50
2019-02-01T08:24:03.974Z,1.50
2019-02-01T08:25:09.589Z,1.50
2019-02-01T08:26:13.296Z,1.50
2019-02-01T08:27:16.886Z,1.60
2019-02-01T08:28:20.638Z,1.60
2019-02-01T08:29:24.294Z,1.60
2019-02-01T08:30:27.897Z,1.60
2019-02-01T08:31:31.531Z,1.60
2019-02-01T08:32:35.209Z,1.70
2019-02-01T08:33:38.794Z,1.70
2019-02-01T08:34:42.422Z,1.70
2019-02-01T08:35:46.217Z,1.70
2019-02-01T08:36:49.817Z,1.80
2019-02-01T08:37:53.430Z,1.80
2019-02-01T08:38:57.028Z,1.80
2019-02-01T08:40:00.680Z,1.80
2019-02-01T08:41:04.430Z,1.90
2019-02-01T08:42:08.159Z,1.90
2019-02-01T08:43:11.872Z,1.90
2019-02-01T08:44:15.455Z,1.90
2019-02-01T08:45:19.113Z,2.00
2019-02-01T08:46:22.767Z,2.00
2019-02-01T08:47:26.427Z,2.00
2019-02-01T08:48:30.052Z,2.10
2019-02-01T08:49:33.663Z,2.10
2019-02-01T08:50:37.271Z,2.10
2019-02-01T08:51:40.952Z,2.10
2019-02-01T08:52:44.649Z,2.10
2019-02-01T08:53:48.288Z,2.10
2019-02-01T08:54:51.951Z,2.20
2019-02-01T08:55:55.633Z,2.20
2019-02-01T08:56:59.352Z,2.20
2019-02-01T08:58:03.029Z,2.20
2019-02-01T08:59:06.755Z,2.20
2019-02-01T09:00:28.372Z,2.20
2019-02-01T09:01:24.459Z,2.20
2019-02-01T09:02:28.070Z,2.20
2019-02-01T09:03:31.692Z,2.20
2019-02-01T09:04:35.405Z,2.30
2019-02-01T09:05:40.469Z,2.20
2019-02-01T09:06:44.218Z,2.10
2019-02-01T09:07:48.096Z,2.10
2019-02-01T09:08:51.733Z,2.10
2019-02-01T09:09:55.316Z,2.10
2019-02-01T09:10:58.978Z,2.20
2019-02-01T09:12:02.645Z,2.20
2019-02-01T09:13:06.305Z,2.20
2019-02-01T09:14:09.903Z,2.20
2019-02-01T09:15:15.692Z,2.30
2019-02-01T09:16:19.326Z,2.30
2019-02-01T09:17:22.987Z,2.40
2019-02-01T09:18:26.571Z,2.40
2019-02-01T09:19:30.155Z,2.50
2019-02-01T09:20:33.865Z,2.50
2019-02-01T09:21:37.446Z,2.50
2019-02-01T09:22:41.025Z,2.60
2019-02-01T09:23:44.651Z,2.60
2019-02-01T09:24:48.325Z,2.60
2019-02-01T09:25:51.991Z,2.60
2019-02-01T09:26:55.577Z,2.60
2019-02-01T09:27:59.163Z,2.60
2019-02-01T09:29:02.775Z,2.50
2019-02-01T09:30:12.755Z,2.50
2019-02-01T09:31:16.360Z,2.60
2019-02-01T09:32:20.025Z,2.60
2019-02-01T09:33:23.684Z,2.60
2019-02-01T09:34:27.313Z,2.50
2019-02-01T09:35:30.970Z,2.60
2019-02-01T09:36:34.552Z,2.60
2019-02-01T09:37:38.271Z,2.60
2019-02-01T09:38:42.004Z,2.70
2019-02-01T09:39:45.630Z,2.70
2019-02-01T09:40:49.251Z,2.70
2019-02-01T09:41:52.843Z,2.80
2019-02-01T09:42:56.480Z,2.90
2019-02-01T09:44:00.118Z,3.00
2019-02-01T09:45:07.109Z,3.00
2019-02-01T09:46:09.716Z,3.00
2019-02-01T09:47:13.340Z,3.10
2019-02-01T09:48:16.939Z,3.10
2019-02-01T09:49:20.619Z,3.00
2019-02-01T09:50:24.599Z,3.00
2019-02-01T09:51:28.243Z,3.00
2019-02-01T09:52:31.850Z,3.10
2019-02-01T09:53:35.430Z,3.10
2019-02-01T09:54:39.104Z,3.10
2019-02-01T09:55:42.684Z,3.10
2019-02-01T09:56:46.327Z,3.20
2019-02-01T09:57:50.024Z,3.20
2019-02-01T09:58:53.650Z,3.20
2019-02-01T09:59:57.231Z,3.20
2019-02-01T10:01:00.814Z,3.30
2019-02-01T10:02:04.578Z,3.40
2019-02-01T10:03:08.198Z,3.40
2019-02-01T10:04:11.901Z,3.50
2019-02-01T10:05:15.621Z,3.60
2019-02-01T10:06:19.220Z,3.60
2019-02-01T10:07:22.792Z,3.70
2019-02-01T10:08:26.425Z,3.70
2019-02-01T10:09:30.031Z,3.70
2019-02-01T10:10:33.705Z,3.70
2019-02-01T10:11:37.282Z,3.80
2019-02-01T10:12:41.004Z,3.80
2019-02-01T10:13:44.614Z,3.90
2019-02-01T10:14:48.215Z,3.90
2019-02-01T10:15:51.917Z,3.90
2019-02-01T10:16:55.524Z,3.90
2019-02-01T10:17:59.133Z,3.90
2019-02-01T10:19:02.743Z,4.00
2019-02-01T10:20:09.478Z,4.00
2019-02-01T10:21:13.103Z,4.00
2019-02-01T10:22:16.766Z,4.00
2019-02-01T10:23:20.522Z,4.10
2019-02-01T10:24:24.220Z,4.20
2019-02-01T10:25:27.986Z,4.30
2019-02-01T10:26:31.514Z,4.30
2019-02-01T10:27:35.105Z,4.30
2019-02-01T10:28:38.689Z,4.40
2019-02-01T10:29:42.323Z,4.40
2019-02-01T10:30:45.909Z,4.40
2019-02-01T10:31:49.594Z,4.50
2019-02-01T10:32:53.416Z,4.40
2019-02-01T10:33:57.022Z,4.50
2019-02-01T10:35:00.631Z,4.50
2019-02-01T10:36:04.644Z,4.40
2019-02-01T10:37:08.388Z,4.40
2019-02-01T10:38:11.970Z,4.40
2019-02-01T10:39:15.562Z,4.40
2019-02-01T10:40:19.352Z,4.40
2019-02-01T10:41:23.004Z,4.30
2019-02-01T10:42:26.597Z,4.30
2019-02-01T10:43:30.182Z,4.40
2019-02-01T10:44:33.771Z,4.50
2019-02-01T10:45:37.414Z,4.60
2019-02-01T10:46:41.000Z,4.80
2019-02-01T10:47:52.804Z,5.10
2019-02-01T10:48:50.160Z,5.30
2019-02-01T10:49:53.755Z,5.50
2019-02-01T10:50:57.480Z,5.60
2019-02-01T10:52:01.085Z,5.60
2019-02-01T10:53:04.745Z,5.70
2019-02-01T10:54:08.333Z,5.80
2019-02-01T10:55:14.334Z,6.00
2019-02-01T10:56:17.959Z,6.10
2019-02-01T10:57:21.557Z,6.20
2019-02-01T10:58:25.219Z,6.30
2019-02-01T10:59:28.831Z,6.50
2019-02-01T11:00:32.412Z,6.70
2019-02-01T11:01:36.138Z,6.70
2019-02-01T11:02:39.806Z,6.70
2019-02-01T11:03:43.380Z,6.60
2019-02-01T11:04:46.966Z,6.50
2019-02-01T11:05:50.572Z,6.50
2019-02-01T11:06:54.269Z,6.50
2019-02-01T11:07:57.933Z,6.60
2019-02-01T11:09:01.525Z,6.60
2019-02-01T11:10:08.153Z,6.60
2019-02-01T11:11:11.771Z,6.40
2019-02-01T11:12:15.407Z,6.20
2019-02-01T11:13:19.080Z,6.00
2019-02-01T11:14:22.670Z,5.90
2019-02-01T11:15:26.264Z,5.60
2019-02-01T11:16:29.854Z,5.50
2019-02-01T11:17:33.634Z,5.40
2019-02-01T11:18:37.272Z,5.20
2019-02-01T11:19:40.862Z,5.20
2019-02-01T11:20:44.544Z,5.10
2019-02-01T11:21:48.123Z,5.10
2019-02-01T11:22:52.025Z,5.00
2019-02-01T11:23:55.649Z,5.00
2019-02-01T11:24:59.229Z,4.90
2019-02-01T11:26:02.902Z,4.90
2019-02-01T11:27:06.571Z,4.90
2019-02-01T11:28:10.204Z,4.90
2019-02-01T11:29:13.938Z,4.90
2019-02-01T11:30:22.321Z,4.90
2019-02-01T11:31:25.958Z,4.80
2019-02-01T11:32:29.574Z,4.80
2019-02-01T11:33:33.171Z,4.80
2019-02-01T11:34:36.764Z,4.80
2019-02-01T11:35:40.677Z,4.90
2019-02-01T11:36:44.332Z,4.90
2019-02-01T11:37:47.986Z,4.90
2019-02-01T11:38:51.593Z,5.00
2019-02-01T11:39:55.332Z,5.00
2019-02-01T11:40:58.930Z,5.00
2019-02-01T11:42:02.575Z,4.90
2019-02-01T11:43:06.295Z,4.80
2019-02-01T11:44:09.881Z,4.80
2019-02-01T11:45:13.713Z,4.70
2019-02-01T11:46:17.300Z,4.70
2019-02-01T11:47:21.011Z,4.70
2019-02-01T11:48:24.639Z,4.70
2019-02-01T11:49:28.236Z,4.80
2019-02-01T11:50:31.819Z,4.70
2019-02-01T11:51:35.553Z,4.70
2019-02-01T11:52:47.835Z,4.70
2019-02-01T11:53:44.531Z,4.60
2019-02-01T11:54:48.125Z,4.60
2019-02-01T11:55:51.718Z,4.70
2019-02-01T11:56:55.305Z,4.70
2019-02-01T11:57:58.990Z,4.70
2019-02-01T11:59:07.881Z,4.70
2019-02-01T12:00:11.744Z,4.80
2019-02-01T12:01:15.619Z,4.80
2019-02-01T12:02:19.222Z,4.80
2019-02-01T12:03:22.920Z,4.80
2019-02-01T12:04:26.503Z,4.80
2019-02-01T12:05:30.090Z,4.80
2019-02-01T12:06:33.769Z,4.70
2019-02-01T12:07:42.966Z,4.70
2019-02-01T12:08:42.837Z,4.70
2019-02-01T12:09:46.476Z,4.70
2019-02-01T12:10:50.137Z,4.80
2019-02-01T12:11:53.777Z,4.80
2019-02-01T12:12:57.376Z,4.90
2019-02-01T12:14:01.127Z,4.90
2019-02-01T12:15:07.071Z,4.90
2019-02-01T12:16:10.648Z,4.90
2019-02-01T12:17:14.225Z,5.00
2019-02-01T12:18:17.808Z,5.00
2019-02-01T12:19:21.447Z,5.00
2019-02-01T12:20:26.478Z,5.00
2019-02-01T12:21:30.101Z,5.10
2019-02-01T12:22:33.699Z,5.10
2019-02-01T12:23:37.380Z,5.10
2019-02-01T12:24:41.074Z,5.20
2019-02-01T12:25:44.723Z,5.20
2019-02-01T12:26:48.361Z,5.20
2019-02-01T12:27:52.057Z,5.20
2019-02-01T12:28:55.655Z,5.20
2019-02-01T12:29:59.327Z,5.20
2019-02-01T12:31:02.917Z,5.30
2019-02-01T12:32:06.559Z,5.30
2019-02-01T12:33:10.230Z,5.40
2019-02-01T12:34:13.832Z,5.50
2019-02-01T12:35:17.478Z,5.50
2019-02-01T12:36:21.047Z,5.50
2019-02-01T12:37:27.021Z,5.60
2019-02-01T12:38:29.984Z,5.70
2019-02-01T12:39:33.568Z,5.80
2019-02-01T12:40:37.231Z,5.90
2019-02-01T12:41:40.827Z,5.90
2019-02-01T12:42:44.532Z,6.10
2019-02-01T12:43:48.158Z,6.20
2019-02-01T12:44:51.783Z,6.50
2019-02-01T12:45:55.379Z,6.80
2019-02-01T12:46:58.973Z,7.00
2019-02-01T12:48:03.069Z,7.30
2019-02-01T12:49:06.719Z,7.60
2019-02-01T12:50:12.495Z,7.80
2019-02-01T12:51:16.341Z,7.80
2019-02-01T12:52:23.052Z,7.90
2019-02-01T12:53:26.636Z,7.80
2019-02-01T12:54:30.284Z,7.70
2019-02-01T12:55:34.006Z,7.70
2019-02-01T12:56:37.728Z,7.80
2019-02-01T12:57:41.470Z,8.00
2019-02-01T12:58:45.420Z,8.10
2019-02-01T12:59:49.088Z,8.20
2019-02-01T13:00:52.753Z,8.40
2019-02-01T13:01:56.442Z,8.70
2019-02-01T13:03:00.199Z,9.00
2019-02-01T13:04:04.969Z,9.10
2019-02-01T13:05:11.652Z,9.30
2019-02-01T13:06:15.393Z,9.70
2019-02-01T13:07:19.047Z,10.00
2019-02-01T13:08:22.672Z,10.40
2019-02-01T13:09:26.287Z,10.90
2019-02-01T13:10:30.156Z,11.20
2019-02-01T13:11:33.895Z,11.30
2019-02-01T13:12:37.517Z,11.20
2019-02-01T13:13:41.132Z,11.10
2019-02-01T13:14:44.799Z,11.30
2019-02-01T13:15:48.537Z,11.10
2019-02-01T13:16:52.174Z,11.20
2019-02-01T13:17:55.965Z,11.20
2019-02-01T13:18:59.558Z,11.30
2019-02-01T13:20:03.352Z,11.60
2019-02-01T13:21:07.097Z,11.30
2019-02-01T13:22:10.786Z,11.00
2019-02-01T13:23:22.761Z,11.10
2019-02-01T13:24:19.812Z,11.30
2019-02-01T13:25:23.443Z,11.20
2019-02-01T13:26:27.092Z,11.20
2019-02-01T13:27:30.750Z,11.10
2019-02-01T13:28:34.348Z,11.00
2019-02-01T13:29:38.032Z,11.00
2019-02-01T13:30:41.622Z,11.20
2019-02-01T13:31:45.199Z,11.40
2019-02-01T13:32:48.986Z,11.40
2019-02-01T13:33:52.648Z,11.40
2019-02-01T13:34:56.292Z,11.50
2019-02-01T13:36:00.002Z,11.50
2019-02-01T13:37:03.654Z,11.30
2019-02-01T13:38:07.319Z,11.30
2019-02-01T13:39:10.984Z,11.50
2019-02-01T13:40:16.645Z,11.20
2019-02-01T13:41:20.227Z,11.20
2019-02-01T13:42:23.848Z,11.40
2019-02-01T13:43:27.519Z,11.20
2019-02-01T13:44:31.115Z,11.10
2019-02-01T13:45:34.751Z,10.50
2019-02-01T13:46:38.366Z,10.70
2019-02-01T13:47:42.221Z,10.90
2019-02-01T13:48:45.927Z,11.00
2019-02-01T13:49:49.520Z,10.80
2019-02-01T13:50:53.125Z,10.60
2019-02-01T13:51:56.814Z,10.40
2019-02-01T13:53:00.529Z,10.20
2019-02-01T13:54:04.237Z,10.10
2019-02-01T13:55:10.741Z,9.80
2019-02-01T13:56:14.328Z,9.60
2019-02-01T13:57:17.968Z,9.40
2019-02-01T13:58:21.544Z,9.50
2019-02-01T13:59:25.141Z,9.50
2019-02-01T14:00:29.008Z,9.20
2019-02-01T14:01:32.591Z,8.90
2019-02-01T14:02:36.251Z,8.70
2019-02-01T14:03:39.871Z,8.60
2019-02-01T14:04:43.487Z,8.40
2019-02-01T14:05:47.093Z,8.40
2019-02-01T14:06:50.703Z,8.30
2019-02-01T14:08:01.580Z,8.20
2019-02-01T14:08:59.662Z,8.20
2019-02-01T14:10:06.252Z,8.10